Time;durP1;ratioP1;P1;durP2;ratioP2;P2;SDS_P1;SDS_P2;PMS_P1;PMS_P2;Temp;Humidity;BMP_temperature;BMP_pressure;BME280_temperature;BME280_humidity;BME280_pressure;Samples;Min_cycle;Max_cycle;Signal;HPM_P1;HPM_P2
2022/03/23 00:00:46;;;;;;;9.80;8.90;;;;;;;0.62;100.00;98286.19;4994432;28;20776;-53
2022/03/23 00:03:15;;;;;;;9.63;8.60;;;;;;;0.62;100.00;98283.59;4999218;28;20220;-52
2022/03/23 00:05:45;;;;;;;10.07;9.17;;;;;;;0.63;100.00;98288.69;5011772;28;20254;-51
2022/03/23 00:08:13;;;;;;;11.57;9.40;;;;;;;0.64;100.00;98285.16;4965823;28;20716;-54
2022/03/23 00:10:41;;;;;;;13.33;10.10;;;;;;;0.66;100.00;98285.91;4992185;28;20204;-52
2022/03/23 00:13:09;;;;;;;10.03;8.60;;;;;;;0.70;100.00;98284.78;4992596;28;20736;-52
2022/03/23 00:15:37;;;;;;;10.07;8.87;;;;;;;0.74;100.00;98289.81;4992090;28;20539;-52
2022/03/23 00:18:06;;;;;;;10.10;9.03;;;;;;;0.81;100.00;98281.50;5007289;28;20309;-50
2022/03/23 00:20:34;;;;;;;9.60;8.43;;;;;;;0.81;100.00;98283.28;4992390;28;20219;-48
2022/03/23 00:23:04;;;;;;;12.50;9.10;;;;;;;0.71;100.00;98285.63;4971252;28;20208;-50
2022/03/23 00:25:32;;;;;;;9.80;8.53;;;;;;;0.61;100.00;98285.34;4987484;28;20922;-51
2022/03/23 00:28:00;;;;;;;10.43;9.07;;;;;;;0.71;100.00;98290.84;4992719;28;21641;-51
2022/03/23 00:30:28;;;;;;;10.50;9.37;;;;;;;0.75;100.00;98283.66;4993535;28;20311;-52
2022/03/23 00:33:17;;;;;;;12.27;9.23;;;;;;;0.72;100.00;98280.31;4997114;28;20205;-54
2022/03/23 00:35:45;;;;;;;11.37;9.63;;;;;;;0.79;100.00;98280.78;4990919;28;20524;-50
2022/03/23 00:38:15;;;;;;;11.17;9.53;;;;;;;0.69;100.00;98277.88;4973185;28;20216;-55
2022/03/23 00:40:44;;;;;;;10.47;9.47;;;;;;;0.73;100.00;98286.38;4991544;28;20209;-52
2022/03/23 00:43:12;;;;;;;10.63;9.57;;;;;;;0.71;100.00;98280.41;4990654;28;20507;-54
2022/03/23 00:45:42;;;;;;;11.10;9.17;;;;;;;0.57;100.00;98265.59;4994396;28;20295;-48
2022/03/23 00:48:10;;;;;;;10.73;9.57;;;;;;;0.52;100.00;98271.09;5005161;28;20204;-53
2022/03/23 00:50:38;;;;;;;9.50;8.60;;;;;;;0.51;100.00;98281.63;4996673;28;20782;-50
2022/03/23 00:53:06;;;;;;;10.87;8.93;;;;;;;0.45;100.00;98276.78;4970470;28;20224;-54
2022/03/23 00:55:36;;;;;;;11.27;9.10;;;;;;;0.43;100.00;98271.66;4984792;28;20433;-51
2022/03/23 00:58:04;;;;;;;10.37;9.20;;;;;;;0.34;100.00;98280.03;5008684;28;20680;-50
2022/03/23 01:00:32;;;;;;;11.23;10.07;;;;;;;0.23;100.00;98271.09;4972876;28;20637;-51
2022/03/23 01:03:00;;;;;;;12.70;10.03;;;;;;;0.12;100.00;98271.75;5013812;28;20204;-50
2022/03/23 01:05:29;;;;;;;13.23;9.83;;;;;;;0.08;100.00;98283.28;5007587;28;20222;-52
2022/03/23 01:07:57;;;;;;;11.00;9.90;;;;;;;-0.05;100.00;98280.56;4996509;28;20927;-51
2022/03/23 01:10:25;;;;;;;10.60;9.37;;;;;;;-0.10;100.00;98277.38;4952641;28;21083;-54
2022/03/23 01:12:55;;;;;;;9.30;8.40;;;;;;;-0.31;100.00;98271.66;5011282;28;20471;-51
2022/03/23 01:15:23;;;;;;;10.90;9.30;;;;;;;-0.39;100.00;98266.88;4969653;28;20213;-55
2022/03/23 01:17:51;;;;;;;10.80;9.70;;;;;;;-0.37;100.00;98269.41;5008857;28;20224;-54
2022/03/23 01:20:21;;;;;;;17.97;13.20;;;;;;;-0.36;100.00;98278.91;4991668;28;20229;-50
2022/03/23 01:22:50;;;;;;;10.67;9.67;;;;;;;-0.47;100.00;98276.91;4996072;28;20211;-53
2022/03/23 01:25:18;;;;;;;14.13;10.00;;;;;;;-0.60;100.00;98276.75;4967984;28;20416;-51
2022/03/23 01:27:47;;;;;;;10.63;9.53;;;;;;;-0.54;100.00;98278.19;4990488;28;20243;-53
2022/03/23 01:30:17;;;;;;;12.70;8.97;;;;;;;-0.59;100.00;98281.84;4993344;28;21366;-50
2022/03/23 01:32:45;;;;;;;10.40;9.33;;;;;;;-0.49;100.00;98276.16;5006035;28;20238;-52
2022/03/23 01:35:14;;;;;;;10.60;9.53;;;;;;;-0.69;100.00;98278.09;4989791;28;20299;-51
2022/03/23 01:37:42;;;;;;;11.00;9.90;;;;;;;-0.89;100.00;98279.19;5008545;28;20201;-55
2022/03/23 01:40:12;;;;;;;12.73;10.13;;;;;;;-0.82;100.00;98275.34;4927143;28;20347;-50
2022/03/23 01:42:41;;;;;;;10.50;9.50;;;;;;;-0.74;100.00;98275.78;4987468;28;20584;-50
2022/03/23 01:45:10;;;;;;;10.90;9.60;;;;;;;-0.82;100.00;98275.34;5009874;28;20608;-51
2022/03/23 01:47:39;;;;;;;14.87;9.53;;;;;;;-0.95;100.00;98269.13;4990911;28;20537;-48
2022/03/23 01:50:09;;;;;;;10.27;9.27;;;;;;;-0.98;100.00;98270.13;4983699;28;20553;-52
2022/03/23 01:52:38;;;;;;;12.90;9.67;;;;;;;-0.89;100.00;98269.66;5011149;28;20206;-51
2022/03/23 01:55:08;;;;;;;11.93;10.23;;;;;;;-0.78;100.00;98265.59;4950311;28;20646;-54
2022/03/23 01:57:37;;;;;;;13.00;10.77;;;;;;;-0.80;100.00;98268.28;4983282;28;20554;-52
2022/03/23 02:00:07;;;;;;;11.27;10.17;;;;;;;-0.82;100.00;98264.09;5003630;28;20233;-53
2022/03/23 02:02:35;;;;;;;11.43;9.03;;;;;;;-0.91;100.00;98263.69;4986434;28;20208;-54
2022/03/23 02:05:05;;;;;;;10.27;8.87;;;;;;;-0.82;100.00;98272.72;5010107;28;20227;-53
2022/03/23 02:07:33;;;;;;;11.60;10.40;;;;;;;-0.85;100.00;98274.69;4986023;28;20266;-53
2022/03/23 02:10:01;;;;;;;10.90;9.77;;;;;;;-0.87;100.00;98274.75;4991380;28;20266;-52
2022/03/23 02:12:30;;;;;;;9.93;8.93;;;;;;;-1.00;100.00;98260.75;4963703;28;20606;-53
2022/03/23 02:14:58;;;;;;;10.33;9.33;;;;;;;-0.95;100.00;98271.75;4998724;28;21716;-53
2022/03/23 02:17:27;;;;;;;10.83;9.57;;;;;;;-0.96;100.00;98270.88;5006610;28;20232;-51
2022/03/23 02:19:55;;;;;;;10.40;9.30;;;;;;;-0.92;100.00;98271.56;4987477;28;20232;-50
2022/03/23 02:22:24;;;;;;;14.03;9.43;;;;;;;-1.02;100.00;98269.47;4986781;28;20213;-50
2022/03/23 02:24:52;;;;;;;10.60;9.50;;;;;;;-1.03;100.00;98272.16;4992405;28;20294;-53
2022/03/23 02:27:20;;;;;;;10.00;9.00;;;;;;;-0.98;100.00;98275.34;4966833;28;20220;-54
2022/03/23 02:29:48;;;;;;;13.07;9.10;;;;;;;-1.05;100.00;98268.78;4996458;28;20336;-52
2022/03/23 02:32:17;;;;;;;10.17;9.07;;;;;;;-1.27;100.00;98263.94;5010848;28;20215;-52
2022/03/23 02:34:45;;;;;;;10.70;9.57;;;;;;;-1.30;100.00;98272.75;4987400;28;20596;-50
2022/03/23 02:37:13;;;;;;;10.27;9.27;;;;;;;-1.32;100.00;98270.22;5007298;28;22378;-51
2022/03/23 02:39:43;;;;;;;13.37;9.50;;;;;;;-1.35;100.00;98266.94;4971643;28;20224;-54
2022/03/23 02:42:11;;;;;;;12.03;9.27;;;;;;;-1.43;100.00;98264.75;4969471;28;20232;-50
2022/03/23 02:44:39;;;;;;;12.23;8.70;;;;;;;-1.53;100.00;98261.81;4988522;28;20210;-49
2022/03/23 02:47:08;;;;;;;9.97;9.00;;;;;;;-1.55;100.00;98276.63;5009910;28;20204;-50
2022/03/23 02:49:36;;;;;;;11.70;9.43;;;;;;;-1.40;100.00;98274.13;4984419;28;20235;-54
2022/03/23 02:52:05;;;;;;;10.53;9.43;;;;;;;-1.36;100.00;98279.09;5011806;28;20207;-51
2022/03/23 03:03:27;;;;;;;9.67;8.73;;;;;;;-1.57;100.00;98273.28;4928495;28;20206;-51
2022/03/23 03:05:55;;;;;;;10.77;9.73;;;;;;;-1.55;100.00;98268.84;4906943;28;20410;-51
2022/03/23 03:11:09;;;;;;;10.47;9.37;;;;;;;-1.66;100.00;98264.19;4909218;28;20419;-48
2022/03/23 03:13:40;;;;;;;10.47;9.43;;;;;;;-1.64;100.00;98272.75;4888219;28;20214;-49
2022/03/23 03:16:08;;;;;;;13.20;9.73;;;;;;;-1.71;100.00;98275.75;4904564;28;20812;-53
2022/03/23 03:18:37;;;;;;;10.73;9.67;;;;;;;-1.73;100.00;98273.25;4927989;28;20871;-50
2022/03/23 03:21:07;;;;;;;10.50;9.30;;;;;;;-1.72;100.00;98261.94;4905514;28;20548;-50
2022/03/23 03:23:35;;;;;;;10.27;9.37;;;;;;;-1.72;100.00;98271.47;4904422;28;20518;-53
2022/03/23 03:26:05;;;;;;;11.43;10.13;;;;;;;-1.81;100.00;98270.22;4909365;28;20210;-50
2022/03/23 03:28:33;;;;;;;17.17;9.97;;;;;;;-1.72;100.00;98269.72;4914035;28;20380;-55
2022/03/23 03:31:04;;;;;;;10.37;9.27;;;;;;;-1.80;100.00;98272.72;4974149;28;20221;-56
2022/03/23 03:33:32;;;;;;;9.80;8.90;;;;;;;-1.82;100.00;98264.16;4992646;28;20204;-53
2022/03/23 03:36:01;;;;;;;9.93;9.03;;;;;;;-1.79;100.00;98277.00;4971018;28;20619;-55
2022/03/23 03:38:29;;;;;;;10.57;9.53;;;;;;;-1.82;100.00;98271.13;4970846;28;20228;-54
2022/03/23 03:40:57;;;;;;;9.77;8.90;;;;;;;-1.78;100.00;98270.88;4984114;28;20201;-52
2022/03/23 03:43:26;;;;;;;11.77;9.17;;;;;;;-1.90;100.00;98281.91;4984579;28;20208;-53
2022/03/23 03:45:54;;;;;;;13.57;10.50;;;;;;;-1.92;100.00;98276.78;4946841;28;20209;-52
2022/03/23 03:48:23;;;;;;;10.63;9.43;;;;;;;-1.86;100.00;98272.22;4971978;28;20445;-56
2022/03/23 03:50:52;;;;;;;11.13;9.63;;;;;;;-1.82;100.00;98266.75;4990583;28;20228;-53
2022/03/23 03:53:20;;;;;;;13.70;9.57;;;;;;;-1.89;100.00;98275.78;4973954;28;20717;-54
2022/03/23 03:55:57;;;;;;;14.93;10.57;;;;;;;-1.98;100.00;98271.06;4966689;28;20596;-50
2022/03/23 03:58:25;;;;;;;11.53;10.33;;;;;;;-1.92;100.00;98271.56;4985474;28;20230;-53
2022/03/23 04:00:54;;;;;;;12.63;10.20;;;;;;;-1.88;100.00;98269.66;4946218;28;20642;-52
2022/03/23 04:03:24;;;;;;;10.90;9.40;;;;;;;-1.91;100.00;98270.66;4983292;28;21554;-58
2022/03/23 04:05:52;;;;;;;10.53;8.90;;;;;;;-1.87;100.00;98265.34;4992486;28;20607;-58
2022/03/23 04:08:20;;;;;;;11.10;9.90;;;;;;;-1.86;100.00;98265.25;4974568;28;20213;-54
2022/03/23 04:10:48;;;;;;;10.77;9.73;;;;;;;-1.85;100.00;98266.09;4946681;28;20947;-52
2022/03/23 04:13:16;;;;;;;12.77;9.87;;;;;;;-1.92;100.00;98274.19;4979366;28;20588;-56
2022/03/23 04:15:44;;;;;;;11.83;10.43;;;;;;;-1.94;100.00;98272.59;4948525;28;20197;-50
2022/03/23 04:18:12;;;;;;;10.30;9.30;;;;;;;-1.85;100.00;98274.72;4997201;28;20317;-53
2022/03/23 04:20:42;;;;;;;10.73;9.73;;;;;;;-2.00;100.00;98278.94;4987311;28;20205;-55
2022/03/23 04:23:10;;;;;;;13.70;10.47;;;;;;;-1.88;100.00;98267.06;4988903;28;20300;-56
2022/03/23 04:25:38;;;;;;;10.93;9.83;;;;;;;-1.95;100.00;98265.72;4977768;28;20683;-53
2022/03/23 04:28:06;;;;;;;10.70;9.67;;;;;;;-2.01;100.00;98279.03;4989688;28;20992;-56
2022/03/23 04:30:34;;;;;;;11.50;10.30;;;;;;;-2.25;100.00;98269.78;4992042;28;20204;-54
2022/03/23 04:33:03;;;;;;;12.27;9.83;;;;;;;-2.11;100.00;98276.88;4988463;28;20220;-56
2022/03/23 04:35:31;;;;;;;14.53;10.13;;;;;;;-2.23;100.00;98277.50;4985524;28;20855;-51
2022/03/23 04:38:00;;;;;;;15.43;10.33;;;;;;;-2.19;100.00;98281.59;5009409;28;20208;-53
2022/03/23 04:40:28;;;;;;;12.70;10.93;;;;;;;-2.22;100.00;98286.97;4989661;28;20836;-53
2022/03/23 04:42:56;;;;;;;10.40;9.37;;;;;;;-2.22;100.00;98289.56;4968633;28;20338;-52
2022/03/23 04:45:24;;;;;;;10.87;9.70;;;;;;;-2.26;100.00;98285.44;5011689;28;20683;-55
2022/03/23 04:47:52;;;;;;;12.17;9.77;;;;;;;-2.39;100.00;98291.25;4959721;28;20364;-52
2022/03/23 04:50:20;;;;;;;12.10;9.80;;;;;;;-2.46;100.00;98284.69;5005874;28;20723;-51
2022/03/23 04:52:52;;;;;;;13.90;9.67;;;;;;;-2.46;100.00;98289.88;5006802;28;20520;-55
2022/03/23 04:55:21;;;;;;;10.27;9.20;;;;;;;-2.56;100.00;98297.25;4986061;28;20216;-52
2022/03/23 04:57:49;;;;;;;11.47;9.90;;;;;;;-2.47;100.00;98294.19;4983079;28;20305;-53
2022/03/23 05:00:20;;;;;;;10.60;9.60;;;;;;;-2.60;100.00;98295.72;4995222;28;20233;-50
2022/03/23 05:02:49;;;;;;;11.67;9.57;;;;;;;-2.65;100.00;98292.50;4967475;28;20311;-54
2022/03/23 05:05:17;;;;;;;9.20;8.33;;;;;;;-2.72;100.00;98297.13;5009637;28;20204;-50
2022/03/23 05:07:46;;;;;;;10.90;9.80;;;;;;;-2.74;100.00;98295.50;5006675;28;20204;-50
2022/03/23 05:10:15;;;;;;;10.20;9.20;;;;;;;-2.65;100.00;98300.28;4989195;28;22297;-56
2022/03/23 05:12:46;;;;;;;10.63;9.63;;;;;;;-2.62;100.00;98292.34;4984191;28;20228;-55
2022/03/23 05:15:16;;;;;;;13.03;9.93;;;;;;;-2.76;100.00;98293.00;4994226;28;20216;-51
2022/03/23 05:17:45;;;;;;;12.93;10.30;;;;;;;-2.71;100.00;98291.03;4971569;28;20667;-54
2022/03/23 05:20:15;;;;;;;11.40;10.20;;;;;;;-2.62;100.00;98300.16;5010858;28;20220;-51
2022/03/23 05:22:43;;;;;;;11.27;9.97;;;;;;;-2.55;100.00;98298.06;5008189;28;20220;-52
2022/03/23 05:25:13;;;;;;;12.43;9.77;;;;;;;-2.60;100.00;98298.31;4990377;28;20208;-53
2022/03/23 05:27:42;;;;;;;12.87;11.47;;;;;;;-2.66;100.00;98302.03;4988690;28;20219;-55
2022/03/23 05:30:13;;;;;;;12.77;10.43;;;;;;;-2.65;100.00;98306.31;4996986;28;20231;-53
2022/03/23 05:32:41;;;;;;;10.87;9.63;;;;;;;-2.65;100.00;98303.72;4974825;28;20242;-53
2022/03/23 05:35:11;;;;;;;13.17;10.93;;;;;;;-2.44;100.00;98306.19;5008069;28;20212;-53
2022/03/23 05:37:39;;;;;;;11.60;10.30;;;;;;;-2.45;100.00;98308.84;5007010;28;20212;-56
2022/03/23 05:40:10;;;;;;;11.57;10.47;;;;;;;-2.41;100.00;98311.25;4988767;28;20232;-57
2022/03/23 05:42:39;;;;;;;12.53;10.57;;;;;;;-2.51;100.00;98307.38;4989333;28;20858;-51
2022/03/23 05:45:07;;;;;;;11.53;10.37;;;;;;;-2.50;100.00;98306.47;5006796;28;20291;-52
2022/03/23 05:47:38;;;;;;;11.37;9.67;;;;;;;-2.31;100.00;98305.59;4980149;28;20204;-52
2022/03/23 05:50:07;;;;;;;11.43;10.27;;;;;;;-2.14;100.00;98309.97;4992889;28;20315;-56
2022/03/23 05:52:35;;;;;;;11.20;10.20;;;;;;;-1.92;100.00;98307.94;5003654;28;20207;-54
2022/03/23 05:55:05;;;;;;;14.23;11.40;;;;;;;-1.83;100.00;98313.63;5005708;28;20843;-55
2022/03/23 05:57:33;;;;;;;12.63;11.47;;;;;;;-1.70;100.00;98312.06;4985495;28;20201;-55
2022/03/23 06:00:01;;;;;;;12.23;11.03;;;;;;;-1.50;100.00;98312.81;4995437;28;20422;-52
2022/03/23 06:02:30;;;;;;;12.00;10.80;;;;;;;-1.19;100.00;98311.16;4987464;28;20220;-52
2022/03/23 06:04:59;;;;;;;13.00;11.67;;;;;;;-0.21;100.00;98308.41;4968635;28;20215;-52
2022/03/23 06:07:27;;;;;;;13.17;9.60;;;;;;;1.95;100.00;98305.69;5003957;28;20542;-52
2022/03/23 06:09:55;;;;;;;11.43;10.07;;;;;;;2.39;100.00;98301.00;5000654;28;20221;-52
2022/03/23 06:12:23;;;;;;;11.77;10.03;;;;;;;1.47;100.00;98303.56;5006924;28;20299;-55
2022/03/23 06:14:51;;;;;;;10.77;9.77;;;;;;;0.74;100.00;98308.06;4966428;28;20208;-53
2022/03/23 06:17:20;;;;;;;11.43;10.27;;;;;;;0.02;100.00;98312.31;4989200;28;20750;-52
2022/03/23 06:19:48;;;;;;;11.17;9.80;;;;;;;-0.26;100.00;98307.84;4967944;28;20228;-55
2022/03/23 06:22:18;;;;;;;12.13;9.63;;;;;;;-0.20;100.00;98315.28;5001928;28;20221;-53
2022/03/23 06:24:46;;;;;;;11.23;9.40;;;;;;;-0.25;100.00;98319.94;5000973;28;20620;-53
2022/03/23 06:27:14;;;;;;;10.53;9.47;;;;;;;-0.28;100.00;98325.31;4999742;28;20205;-51
2022/03/23 06:29:42;;;;;;;11.07;10.07;;;;;;;-0.12;100.00;98327.88;4987034;28;20424;-57
2022/03/23 06:32:10;;;;;;;10.77;9.67;;;;;;;-0.08;100.00;98325.03;4995376;28;20204;-53
2022/03/23 06:34:38;;;;;;;10.13;9.23;;;;;;;-0.07;100.00;98325.84;4964010;28;21441;-49
2022/03/23 06:37:08;;;;;;;10.60;9.50;;;;;;;-0.09;100.00;98320.75;5004764;28;20787;-55
2022/03/23 06:39:37;;;;;;;10.63;9.57;;;;;;;0.10;100.00;98335.28;5001711;28;20358;-51
2022/03/23 06:42:06;;;;;;;11.80;10.23;;;;;;;0.22;100.00;98328.53;5004171;28;20312;-59
2022/03/23 06:44:34;;;;;;;13.07;9.97;;;;;;;0.39;100.00;98338.81;4984805;28;20330;-52
2022/03/23 06:47:02;;;;;;;11.73;8.83;;;;;;;0.44;100.00;98343.75;4993511;28;20208;-53
2022/03/23 06:49:30;;;;;;;11.77;9.90;;;;;;;0.61;100.00;98344.53;4964539;28;20760;-48
2022/03/23 06:51:58;;;;;;;12.03;10.83;;;;;;;0.76;100.00;98337.50;5004333;28;20212;-55
2022/03/23 06:54:26;;;;;;;14.27;11.27;;;;;;;1.02;100.00;98338.53;5002607;28;20956;-53
2022/03/23 06:56:55;;;;;;;11.63;10.43;;;;;;;1.18;100.00;98342.78;5009415;28;20222;-57
2022/03/23 06:59:23;;;;;;;11.00;9.90;;;;;;;1.42;100.00;98340.41;5000952;28;20742;-51
2022/03/23 07:01:51;;;;;;;12.17;10.57;;;;;;;1.47;100.00;98342.72;4992775;28;20683;-55
2022/03/23 07:04:19;;;;;;;10.67;9.67;;;;;;;1.59;100.00;98341.94;4963925;28;20209;-53
2022/03/23 07:06:48;;;;;;;15.50;10.03;;;;;;;1.81;100.00;98335.34;4994889;28;20208;-54
2022/03/23 07:09:35;;;;;;;13.90;10.03;;;;;;;1.98;100.00;98350.75;5005458;28;20224;-49
2022/03/23 07:12:07;;;;;;;10.73;9.73;;;;;;;2.05;100.00;98350.34;5004470;28;20303;-55
2022/03/23 07:14:36;;;;;;;13.83;10.57;;;;;;;2.36;100.00;98356.16;5001008;28;20481;-54
2022/03/23 07:17:05;;;;;;;11.40;10.30;;;;;;;2.58;100.00;98355.53;4988661;28;20212;-54
2022/03/23 07:19:33;;;;;;;10.63;9.53;;;;;;;2.62;100.00;98354.38;4952841;28;20294;-55
2022/03/23 07:22:01;;;;;;;11.80;10.53;;;;;;;2.83;100.00;98349.44;5000058;28;20201;-57
2022/03/23 07:24:29;;;;;;;15.50;10.33;;;;;;;2.99;100.00;98361.47;5004188;28;20215;-55
2022/03/23 07:26:59;;;;;;;11.07;9.97;;;;;;;3.19;100.00;98354.84;5009550;28;20219;-52
2022/03/23 07:29:47;;;;;;;12.00;10.80;;;;;;;4.50;100.00;98362.00;5003680;28;20513;-55
2022/03/23 07:32:15;;;;;;;13.70;10.67;;;;;;;6.28;100.00;98359.47;4990970;28;20235;-51
2022/03/23 07:34:44;;;;;;;12.13;10.90;;;;;;;7.64;79.48;98360.22;4991587;28;20327;-55
2022/03/23 07:37:12;;;;;;;11.40;10.30;;;;;;;8.61;68.07;98355.94;4963350;28;20208;-51
2022/03/23 07:39:40;;;;;;;12.13;10.93;;;;;;;8.96;62.33;98362.38;5002848;28;20402;-53
2022/03/23 07:42:08;;;;;;;13.13;11.00;;;;;;;9.75;58.10;98354.03;5003128;28;20205;-53
2022/03/23 07:44:36;;;;;;;12.27;10.97;;;;;;;9.90;56.33;98362.28;5000138;28;20211;-52
2022/03/23 07:47:10;;;;;;;10.43;9.37;;;;;;;10.60;52.20;98358.09;4992148;28;20294;-51
2022/03/23 07:49:38;;;;;;;11.63;10.43;;;;;;;11.15;50.66;98356.06;5001852;28;20224;-52
2022/03/23 07:52:06;;;;;;;12.67;10.80;;;;;;;10.44;50.73;98352.69;4962683;28;20212;-54
2022/03/23 07:54:35;;;;;;;13.40;10.77;;;;;;;8.80;55.91;98360.34;4999041;28;20423;-54
2022/03/23 07:57:03;;;;;;;11.40;10.40;;;;;;;7.91;63.97;98358.72;5007347;28;20216;-57
2022/03/23 07:59:31;;;;;;;11.80;10.57;;;;;;;7.21;71.61;98355.13;4999118;28;20444;-51
2022/03/23 08:01:59;;;;;;;12.70;11.37;;;;;;;7.09;77.82;98358.81;4989733;28;20223;-52
2022/03/23 08:04:28;;;;;;;11.97;10.20;;;;;;;6.89;79.46;98357.91;5002384;28;20635;-52
2022/03/23 08:06:57;;;;;;;10.43;9.33;;;;;;;6.95;78.24;98360.00;4963711;28;20679;-50
2022/03/23 08:09:25;;;;;;;12.93;10.27;;;;;;;7.22;76.85;98361.25;4999432;28;20255;-55
2022/03/23 08:11:53;;;;;;;12.70;11.50;;;;;;;7.30;76.79;98360.56;5005897;28;20481;-55
2022/03/23 08:14:22;;;;;;;14.40;11.63;;;;;;;7.29;76.46;98358.88;5003199;28;20215;-53
2022/03/23 08:16:50;;;;;;;12.63;11.27;;;;;;;7.31;74.84;98360.44;4988245;28;20219;-55
2022/03/23 08:19:18;;;;;;;11.13;10.13;;;;;;;7.33;75.72;98360.28;5005445;28;20247;-54
2022/03/23 08:21:50;;;;;;;11.90;10.60;;;;;;;7.49;75.32;98360.63;4964232;28;20715;-55
2022/03/23 08:24:18;;;;;;;11.80;10.63;;;;;;;7.64;72.08;98357.59;5001997;28;20967;-50
2022/03/23 08:26:47;;;;;;;11.27;10.00;;;;;;;7.79;67.64;98358.03;5006643;28;20296;-54
2022/03/23 08:29:15;;;;;;;11.87;10.67;;;;;;;7.95;65.14;98350.41;5006873;28;20314;-52
2022/03/23 08:31:43;;;;;;;10.97;9.83;;;;;;;8.25;63.30;98361.78;5007360;28;20200;-51
2022/03/23 08:34:12;;;;;;;12.27;9.90;;;;;;;8.55;62.11;98361.78;4989235;28;20410;-51
2022/03/23 08:36:40;;;;;;;11.00;10.00;;;;;;;8.72;59.43;98362.03;4961468;28;21103;-50
2022/03/23 08:39:09;;;;;;;11.83;10.53;;;;;;;8.83;58.98;98359.19;4998334;28;20256;-53
2022/03/23 08:41:37;;;;;;;14.67;9.90;;;;;;;9.06;57.39;98359.66;5003450;28;20486;-53
2022/03/23 08:44:06;;;;;;;12.13;10.33;;;;;;;9.45;56.27;98356.03;5008846;28;20224;-54
2022/03/23 08:46:34;;;;;;;12.07;10.50;;;;;;;9.49;55.50;98364.50;5004111;28;20211;-54
2022/03/23 08:49:02;;;;;;;12.67;11.37;;;;;;;9.77;53.33;98359.16;4993674;28;20807;-57
2022/03/23 08:51:30;;;;;;;11.43;10.27;;;;;;;9.87;52.93;98353.81;5005988;28;20211;-56
2022/03/23 08:53:58;;;;;;;11.53;10.43;;;;;;;10.08;51.55;98353.50;4961450;28;20209;-54
2022/03/23 08:56:28;;;;;;;10.43;9.43;;;;;;;10.22;50.54;98350.31;5001656;28;20216;-52
2022/03/23 08:58:56;;;;;;;10.83;9.77;;;;;;;10.51;49.85;98349.25;5006287;28;20230;-57
2022/03/23 09:01:24;;;;;;;11.30;10.10;;;;;;;10.77;47.76;98347.56;5007757;28;20296;-52
2022/03/23 09:03:53;;;;;;;11.27;10.20;;;;;;;10.74;47.42;98347.88;4991281;28;20803;-51
2022/03/23 09:06:21;;;;;;;12.93;8.90;;;;;;;10.90;47.76;98342.69;5008120;28;20208;-51
2022/03/23 09:08:49;;;;;;;12.10;8.87;;;;;;;11.10;44.82;98343.28;4961788;28;25819;-53
2022/03/23 09:11:17;;;;;;;10.57;9.03;;;;;;;11.16;44.81;98344.47;5004228;28;20215;-52
2022/03/23 09:13:47;;;;;;;10.53;9.57;;;;;;;11.32;44.27;98346.34;5002086;28;20394;-52
2022/03/23 09:16:15;;;;;;;11.73;10.63;;;;;;;11.42;43.09;98348.88;5005735;28;20205;-54
2022/03/23 09:18:43;;;;;;;12.87;11.60;;;;;;;11.39;44.25;98354.50;4989694;28;20829;-53
2022/03/23 09:21:11;;;;;;;12.87;11.20;;;;;;;11.50;42.96;98346.25;5003530;28;20308;-53
2022/03/23 09:23:40;;;;;;;13.50;10.27;;;;;;;11.48;41.30;98347.41;4959795;28;24930;-50
2022/03/23 09:26:09;;;;;;;12.47;10.37;;;;;;;11.61;41.29;98345.13;5007138;28;20699;-57
2022/03/23 09:28:37;;;;;;;13.77;11.23;;;;;;;11.81;40.60;98340.34;5000736;28;20430;-52
2022/03/23 09:31:07;;;;;;;11.27;9.80;;;;;;;11.91;39.78;98345.53;5007734;28;20208;-52
2022/03/23 09:33:35;;;;;;;10.47;9.47;;;;;;;12.18;39.07;98343.59;5000541;28;20283;-52
2022/03/23 09:36:04;;;;;;;11.17;10.27;;;;;;;12.46;37.64;98337.91;4993807;28;20215;-55
2022/03/23 09:38:32;;;;;;;10.30;9.40;;;;;;;12.63;37.74;98333.41;5002587;28;20798;-51
2022/03/23 09:41:00;;;;;;;12.17;10.73;;;;;;;12.73;38.19;98328.75;4962820;28;20220;-57
2022/03/23 09:43:29;;;;;;;16.23;10.63;;;;;;;12.64;36.76;98340.38;5002549;28;20458;-53
2022/03/23 09:45:57;;;;;;;16.93;10.07;;;;;;;12.66;37.21;98330.41;5008146;28;20208;-51
2022/03/23 09:48:31;;;;;;;11.03;9.30;;;;;;;12.65;37.97;98333.25;5004605;28;20238;-53
2022/03/23 09:51:00;;;;;;;9.90;8.90;;;;;;;12.95;37.71;98326.34;4993600;28;20215;-55
2022/03/23 09:53:28;;;;;;;10.63;9.40;;;;;;;13.06;36.49;98322.50;5006072;28;20505;-53
2022/03/23 09:55:56;;;;;;;11.00;8.60;;;;;;;13.10;37.56;98317.69;4965102;28;20216;-55
2022/03/23 09:58:25;;;;;;;11.57;8.67;;;;;;;13.27;37.63;98316.59;5004939;28;20228;-51
2022/03/23 10:00:54;;;;;;;9.47;8.53;;;;;;;13.16;36.96;98319.66;5001490;28;20901;-50
2022/03/23 10:04:06;;;;;;;9.27;8.43;;;;;;;13.42;36.89;98318.50;5007436;28;20319;-53
2022/03/23 10:07:06;;;;;;;8.87;8.07;;;;;;;13.23;36.67;98309.97;4981425;28;20216;-54
2022/03/23 10:10:05;;;;;;;8.33;7.53;;;;;;;12.44;37.24;98319.50;5003851;28;20228;-48
2022/03/23 10:13:20;;;;;;;8.80;8.03;;;;;;;12.85;37.20;98315.09;4960034;28;20212;-55
2022/03/23 10:16:39;;;;;;;8.00;7.20;;;;;;;13.22;36.33;98313.63;4991512;28;20206;-53
2022/03/23 10:19:09;;;;;;;12.30;8.47;;;;;;;13.62;35.86;98307.47;5003386;28;20344;-55
2022/03/23 10:21:39;;;;;;;10.67;7.93;;;;;;;13.89;35.85;98306.94;4989930;28;20528;-51
2022/03/23 10:24:32;;;;;;;9.83;7.90;;;;;;;14.08;34.38;98299.47;5007129;28;20235;-54
2022/03/23 10:27:09;;;;;;;8.53;7.73;;;;;;;13.77;35.71;98300.34;5006317;28;20216;-55
2022/03/23 10:29:42;;;;;;;11.27;8.07;;;;;;;14.04;35.85;98306.16;4959401;28;20410;-50
2022/03/23 10:32:11;;;;;;;9.43;8.53;;;;;;;13.94;34.97;98300.25;5004288;28;20760;-55
2022/03/23 10:34:43;;;;;;;9.00;8.10;;;;;;;14.07;34.27;98297.81;5004711;28;20447;-55
2022/03/23 10:37:12;;;;;;;9.13;8.20;;;;;;;13.83;34.54;98298.84;4986772;28;20210;-50
2022/03/23 10:39:44;;;;;;;8.73;7.80;;;;;;;13.96;35.62;98291.06;4999372;28;20422;-51
2022/03/23 10:42:15;;;;;;;9.37;8.17;;;;;;;14.15;34.79;98288.94;5005884;28;20572;-53
2022/03/23 10:44:44;;;;;;;9.27;8.47;;;;;;;14.39;34.37;98285.22;4966696;28;20234;-52
2022/03/23 10:47:25;;;;;;;9.90;8.47;;;;;;;14.39;33.65;98282.53;5007292;28;20211;-54
2022/03/23 10:49:55;;;;;;;9.47;8.53;;;;;;;14.14;34.03;98276.63;5003108;28;20804;-55
2022/03/23 10:52:27;;;;;;;8.37;7.60;;;;;;;14.22;34.38;98273.88;4990639;28;20240;-54
2022/03/23 10:54:57;;;;;;;12.67;8.07;;;;;;;14.35;34.03;98277.75;5007051;28;20247;-53
2022/03/23 10:58:01;;;;;;;8.97;8.07;;;;;;;14.54;33.27;98269.22;4986338;28;20691;-50
2022/03/23 11:00:30;;;;;;;9.80;8.13;;;;;;;14.52;33.81;98262.41;4998495;28;20248;-51
2022/03/23 11:02:59;;;;;;;8.43;7.63;;;;;;;14.64;33.80;98258.31;5001798;28;20217;-53
2022/03/23 11:05:33;;;;;;;11.80;7.90;;;;;;;14.60;33.47;98259.69;5005941;28;20603;-53
2022/03/23 11:08:09;;;;;;;8.57;7.87;;;;;;;14.70;32.44;98249.59;4990051;28;20245;-51
2022/03/23 11:16:12;;;;;;;9.00;7.43;;;;;;;14.87;33.38;98244.03;4991742;28;20529;-56
2022/03/23 11:18:40;;;;;;;9.03;8.13;;;;;;;14.99;33.27;98245.25;5003716;28;20246;-53
2022/03/23 11:21:09;;;;;;;9.80;7.63;;;;;;;15.02;32.98;98242.22;4994015;28;20213;-56
2022/03/23 11:23:38;;;;;;;11.97;9.87;;;;;;;14.76;33.51;98243.50;4991217;28;20299;-54
2022/03/23 11:26:08;;;;;;;9.27;8.37;;;;;;;15.02;33.37;98238.69;4999206;28;20210;-53
2022/03/23 11:28:38;;;;;;;11.63;8.27;;;;;;;15.14;34.00;98229.19;5000621;28;20226;-55
2022/03/23 11:31:08;;;;;;;8.93;8.20;;;;;;;15.35;33.06;98232.91;4969147;28;20529;-55
2022/03/23 11:33:37;;;;;;;8.60;7.90;;;;;;;15.26;32.63;98223.38;5001632;28;20235;-51
2022/03/23 11:36:08;;;;;;;9.90;8.00;;;;;;;15.12;32.34;98228.53;4989376;28;20426;-53
2022/03/23 11:38:38;;;;;;;7.67;6.97;;;;;;;15.34;32.91;98224.09;5004341;28;20228;-52
2022/03/23 11:41:08;;;;;;;7.97;7.30;;;;;;;15.56;33.22;98221.41;4985611;28;20678;-54
2022/03/23 11:43:37;;;;;;;8.77;7.90;;;;;;;15.40;32.06;98216.34;5003819;28;20204;-51
2022/03/23 11:46:22;;;;;;;7.63;7.03;;;;;;;15.65;31.83;98214.09;4960524;28;20208;-52
2022/03/23 11:48:59;;;;;;;8.50;7.70;;;;;;;15.70;31.79;98221.53;4997173;28;20254;-54
2022/03/23 11:51:38;;;;;;;8.90;8.10;;;;;;;15.69;32.02;98211.88;4997563;28;20212;-50